sensor_id;sensor_type;location;lat;lon;timestamp;P1;durP1;ratioP1;P2;durP2;ratioP2
57107;SDS011;42987;52.916;6.542;2024-03-08T00:02:39;40.60;;;31.80;;
57107;SDS011;42987;52.916;6.542;2024-03-08T00:05:06;38.88;;;32.33;;
57107;SDS011;42987;52.916;6.542;2024-03-08T00:07:36;39.10;;;31.52;;
57107;SDS011;42987;52.916;6.542;2024-03-08T00:10:06;37.53;;;31.48;;
57107;SDS011;42987;52.916;6.542;2024-03-08T00:12:36;43.17;;;32.60;;
57107;SDS011;42987;52.916;6.542;2024-03-08T00:15:09;40.92;;;31.95;;
57107;SDS011;42987;52.916;6.542;2024-03-08T00:17:39;42.15;;;33.97;;
57107;SDS011;42987;52.916;6.542;2024-03-08T00:20:06;40.95;;;32.35;;
57107;SDS011;42987;52.916;6.542;2024-03-08T00:22:35;39.70;;;31.47;;
57107;SDS011;42987;52.916;6.542;2024-03-08T00:25:07;40.50;;;33.53;;
57107;SDS011;42987;52.916;6.542;2024-03-08T00:27:37;41.42;;;33.70;;
57107;SDS011;42987;52.916;6.542;2024-03-08T00:30:03;42.10;;;33.67;;
57107;SDS011;42987;52.916;6.542;2024-03-08T00:32:30;40.28;;;33.95;;
57107;SDS011;42987;52.916;6.542;2024-03-08T00:35:00;41.50;;;34.75;;
57107;SDS011;42987;52.916;6.542;2024-03-08T00:37:25;45.30;;;35.00;;
57107;SDS011;42987;52.916;6.542;2024-03-08T00:39:51;47.63;;;36.63;;
57107;SDS011;42987;52.916;6.542;2024-03-08T00:42:18;43.83;;;34.08;;
57107;SDS011;42987;52.916;6.542;2024-03-08T00:44:45;43.28;;;34.83;;
57107;SDS011;42987;52.916;6.542;2024-03-08T00:47:11;43.85;;;34.45;;
57107;SDS011;42987;52.916;6.542;2024-03-08T00:49:37;41.83;;;34.38;;
57107;SDS011;42987;52.916;6.542;2024-03-08T00:52:06;42.33;;;36.20;;
57107;SDS011;42987;52.916;6.542;2024-03-08T00:54:33;41.33;;;34.90;;
57107;SDS011;42987;52.916;6.542;2024-03-08T00:57:01;44.85;;;35.85;;
57107;SDS011;42987;52.916;6.542;2024-03-08T00:59:31;40.72;;;35.15;;
57107;SDS011;42987;52.916;6.542;2024-03-08T01:02:01;44.03;;;36.40;;
57107;SDS011;42987;52.916;6.542;2024-03-08T01:04:31;43.30;;;35.22;;
57107;SDS011;42987;52.916;6.542;2024-03-08T01:07:00;45.45;;;35.67;;
57107;SDS011;42987;52.916;6.542;2024-03-08T01:09:27;40.75;;;35.10;;
57107;SDS011;42987;52.916;6.542;2024-03-08T01:11:53;44.65;;;35.80;;
57107;SDS011;42987;52.916;6.542;2024-03-08T01:14:20;43.13;;;35.67;;
57107;SDS011;42987;52.916;6.542;2024-03-08T01:16:50;44.63;;;35.83;;
57107;SDS011;42987;52.916;6.542;2024-03-08T01:19:16;42.58;;;35.00;;
57107;SDS011;42987;52.916;6.542;2024-03-08T01:21:42;45.05;;;36.50;;
57107;SDS011;42987;52.916;6.542;2024-03-08T01:24:08;45.15;;;36.58;;
57107;SDS011;42987;52.916;6.542;2024-03-08T01:26:34;47.08;;;36.35;;
57107;SDS011;42987;52.916;6.542;2024-03-08T01:29:00;42.75;;;35.45;;
57107;SDS011;42987;52.916;6.542;2024-03-08T01:31:29;41.20;;;35.20;;
57107;SDS011;42987;52.916;6.542;2024-03-08T01:33:56;42.33;;;35.92;;
57107;SDS011;42987;52.916;6.542;2024-03-08T01:36:22;45.08;;;36.47;;
57107;SDS011;42987;52.916;6.542;2024-03-08T01:38:50;40.45;;;33.75;;
57107;SDS011;42987;52.916;6.542;2024-03-08T01:41:16;46.13;;;35.50;;
57107;SDS011;42987;52.916;6.542;2024-03-08T01:43:43;44.25;;;35.20;;
57107;SDS011;42987;52.916;6.542;2024-03-08T01:46:10;46.20;;;36.00;;
57107;SDS011;42987;52.916;6.542;2024-03-08T01:48:40;43.92;;;35.90;;
57107;SDS011;42987;52.916;6.542;2024-03-08T01:51:06;41.97;;;34.67;;
57107;SDS011;42987;52.916;6.542;2024-03-08T01:53:33;49.47;;;37.00;;
57107;SDS011;42987;52.916;6.542;2024-03-08T01:56:00;44.78;;;35.65;;
57107;SDS011;42987;52.916;6.542;2024-03-08T01:58:28;43.75;;;35.13;;
57107;SDS011;42987;52.916;6.542;2024-03-08T02:03:24;45.50;;;37.75;;
57107;SDS011;42987;52.916;6.542;2024-03-08T02:05:50;45.58;;;35.80;;
57107;SDS011;42987;52.916;6.542;2024-03-08T02:08:16;46.38;;;37.20;;
57107;SDS011;42987;52.916;6.542;2024-03-08T02:10:44;46.17;;;35.85;;
57107;SDS011;42987;52.916;6.542;2024-03-08T02:13:10;44.60;;;36.20;;
57107;SDS011;42987;52.916;6.542;2024-03-08T02:16:10;43.78;;;36.28;;
57107;SDS011;42987;52.916;6.542;2024-03-08T02:18:30;46.22;;;36.90;;
57107;SDS011;42987;52.916;6.542;2024-03-08T02:21:00;42.97;;;36.40;;
57107;SDS011;42987;52.916;6.542;2024-03-08T02:23:29;45.50;;;36.22;;
57107;SDS011;42987;52.916;6.542;2024-03-08T02:26:05;42.63;;;35.20;;
57107;SDS011;42987;52.916;6.542;2024-03-08T02:28:32;43.22;;;35.38;;
57107;SDS011;42987;52.916;6.542;2024-03-08T02:30:59;50.05;;;37.10;;
57107;SDS011;42987;52.916;6.542;2024-03-08T02:33:27;44.55;;;37.08;;
57107;SDS011;42987;52.916;6.542;2024-03-08T02:35:53;44.35;;;36.80;;
57107;SDS011;42987;52.916;6.542;2024-03-08T02:38:21;43.40;;;35.10;;
57107;SDS011;42987;52.916;6.542;2024-03-08T02:40:48;44.65;;;37.28;;
57107;SDS011;42987;52.916;6.542;2024-03-08T02:43:15;46.38;;;36.72;;
57107;SDS011;42987;52.916;6.542;2024-03-08T02:45:42;46.38;;;37.35;;
57107;SDS011;42987;52.916;6.542;2024-03-08T02:48:09;45.13;;;36.20;;
57107;SDS011;42987;52.916;6.542;2024-03-08T02:50:36;41.70;;;36.03;;
57107;SDS011;42987;52.916;6.542;2024-03-08T02:53:02;44.65;;;37.22;;
57107;SDS011;42987;52.916;6.542;2024-03-08T02:55:29;43.53;;;35.85;;
57107;SDS011;42987;52.916;6.542;2024-03-08T02:57:55;49.13;;;37.35;;
57107;SDS011;42987;52.916;6.542;2024-03-08T03:00:21;45.75;;;35.78;;
57107;SDS011;42987;52.916;6.542;2024-03-08T03:02:49;45.67;;;36.15;;
57107;SDS011;42987;52.916;6.542;2024-03-08T03:05:19;44.60;;;36.03;;
57107;SDS011;42987;52.916;6.542;2024-03-08T03:07:45;44.53;;;36.58;;
57107;SDS011;42987;52.916;6.542;2024-03-08T03:10:11;45.95;;;37.30;;
57107;SDS011;42987;52.916;6.542;2024-03-08T03:12:37;42.47;;;36.58;;
57107;SDS011;42987;52.916;6.542;2024-03-08T03:15:03;43.72;;;36.75;;
57107;SDS011;42987;52.916;6.542;2024-03-08T03:17:31;45.90;;;37.90;;
57107;SDS011;42987;52.916;6.542;2024-03-08T03:19:57;46.63;;;37.28;;
57107;SDS011;42987;52.916;6.542;2024-03-08T03:22:23;46.42;;;36.83;;
57107;SDS011;42987;52.916;6.542;2024-03-08T03:24:50;45.33;;;36.10;;
57107;SDS011;42987;52.916;6.542;2024-03-08T03:27:17;44.88;;;37.85;;
57107;SDS011;42987;52.916;6.542;2024-03-08T03:29:43;45.10;;;37.03;;
57107;SDS011;42987;52.916;6.542;2024-03-08T03:32:12;42.30;;;36.17;;
57107;SDS011;42987;52.916;6.542;2024-03-08T03:34:39;44.15;;;36.25;;
57107;SDS011;42987;52.916;6.542;2024-03-08T03:37:05;44.15;;;35.17;;
57107;SDS011;42987;52.916;6.542;2024-03-08T03:39:37;42.83;;;35.88;;
57107;SDS011;42987;52.916;6.542;2024-03-08T03:42:16;43.65;;;36.22;;
57107;SDS011;42987;52.916;6.542;2024-03-08T03:44:46;39.83;;;34.33;;
57107;SDS011;42987;52.916;6.542;2024-03-08T03:47:13;45.10;;;36.75;;
57107;SDS011;42987;52.916;6.542;2024-03-08T03:49:42;43.38;;;35.25;;
57107;SDS011;42987;52.916;6.542;2024-03-08T03:52:08;45.17;;;35.60;;
57107;SDS011;42987;52.916;6.542;2024-03-08T03:54:35;46.95;;;37.78;;
57107;SDS011;42987;52.916;6.542;2024-03-08T03:57:04;44.50;;;35.97;;
57107;SDS011;42987;52.916;6.542;2024-03-08T03:59:30;44.57;;;37.57;;
57107;SDS011;42987;52.916;6.542;2024-03-08T04:01:56;44.00;;;36.57;;
57107;SDS011;42987;52.916;6.542;2024-03-08T04:04:22;45.72;;;35.03;;
57107;SDS011;42987;52.916;6.542;2024-03-08T04:06:49;46.33;;;36.58;;
57107;SDS011;42987;52.916;6.542;2024-03-08T04:09:16;42.20;;;36.88;;
57107;SDS011;42987;52.916;6.542;2024-03-08T04:11:44;44.20;;;36.10;;
57107;SDS011;42987;52.916;6.542;2024-03-08T04:14:10;43.65;;;35.83;;
57107;SDS011;42987;52.916;6.542;2024-03-08T04:16:37;44.38;;;36.22;;
57107;SDS011;42987;52.916;6.542;2024-03-08T04:19:02;46.17;;;36.20;;
57107;SDS011;42987;52.916;6.542;2024-03-08T04:21:32;45.38;;;37.17;;
57107;SDS011;42987;52.916;6.542;2024-03-08T04:23:58;43.80;;;36.60;;
57107;SDS011;42987;52.916;6.542;2024-03-08T04:26:24;42.87;;;36.10;;
57107;SDS011;42987;52.916;6.542;2024-03-08T04:28:51;45.13;;;37.15;;
57107;SDS011;42987;52.916;6.542;2024-03-08T04:31:17;44.33;;;36.20;;
57107;SDS011;42987;52.916;6.542;2024-03-08T04:33:42;45.20;;;36.53;;
57107;SDS011;42987;52.916;6.542;2024-03-08T04:36:09;43.73;;;35.47;;
57107;SDS011;42987;52.916;6.542;2024-03-08T04:38:38;44.72;;;36.10;;
57107;SDS011;42987;52.916;6.542;2024-03-08T04:41:06;42.95;;;35.30;;
57107;SDS011;42987;52.916;6.542;2024-03-08T04:43:32;47.57;;;36.53;;
57107;SDS011;42987;52.916;6.542;2024-03-08T04:45:59;42.83;;;35.22;;
57107;SDS011;42987;52.916;6.542;2024-03-08T04:48:25;45.00;;;37.03;;
57107;SDS011;42987;52.916;6.542;2024-03-08T04:50:53;40.92;;;34.72;;
57107;SDS011;42987;52.916;6.542;2024-03-08T04:53:19;46.35;;;36.40;;
57107;SDS011;42987;52.916;6.542;2024-03-08T04:55:45;44.70;;;37.00;;
57107;SDS011;42987;52.916;6.542;2024-03-08T04:58:11;42.45;;;36.80;;
57107;SDS011;42987;52.916;6.542;2024-03-08T05:00:37;48.07;;;36.97;;
57107;SDS011;42987;52.916;6.542;2024-03-08T05:03:02;43.80;;;35.20;;
57107;SDS011;42987;52.916;6.542;2024-03-08T05:05:30;41.42;;;34.40;;
57107;SDS011;42987;52.916;6.542;2024-03-08T05:07:56;44.08;;;35.83;;
57107;SDS011;42987;52.916;6.542;2024-03-08T05:10:22;44.73;;;36.83;;
57107;SDS011;42987;52.916;6.542;2024-03-08T05:12:47;43.57;;;34.80;;
57107;SDS011;42987;52.916;6.542;2024-03-08T05:15:13;44.63;;;35.93;;
57107;SDS011;42987;52.916;6.542;2024-03-08T05:17:40;44.83;;;36.25;;
57107;SDS011;42987;52.916;6.542;2024-03-08T05:20:07;45.45;;;36.40;;
57107;SDS011;42987;52.916;6.542;2024-03-08T05:22:33;45.27;;;36.00;;
57107;SDS011;42987;52.916;6.542;2024-03-08T05:24:59;41.63;;;36.43;;
57107;SDS011;42987;52.916;6.542;2024-03-08T05:27:25;48.63;;;37.67;;
57107;SDS011;42987;52.916;6.542;2024-03-08T05:29:53;42.83;;;35.63;;
57107;SDS011;42987;52.916;6.542;2024-03-08T05:32:19;43.03;;;35.50;;
57107;SDS011;42987;52.916;6.542;2024-03-08T05:34:45;46.73;;;35.73;;
57107;SDS011;42987;52.916;6.542;2024-03-08T05:37:11;40.80;;;35.20;;
57107;SDS011;42987;52.916;6.542;2024-03-08T05:39:36;42.40;;;35.30;;
57107;SDS011;42987;52.916;6.542;2024-03-08T05:42:02;43.50;;;36.40;;
57107;SDS011;42987;52.916;6.542;2024-03-08T05:44:28;43.25;;;35.30;;
57107;SDS011;42987;52.916;6.542;2024-03-08T05:46:56;49.03;;;35.93;;
57107;SDS011;42987;52.916;6.542;2024-03-08T05:49:22;42.67;;;36.13;;
57107;SDS011;42987;52.916;6.542;2024-03-08T05:51:47;43.30;;;34.10;;
57107;SDS011;42987;52.916;6.542;2024-03-08T05:54:13;45.13;;;36.37;;
57107;SDS011;42987;52.916;6.542;2024-03-08T05:56:39;45.87;;;35.83;;
57107;SDS011;42987;52.916;6.542;2024-03-08T05:59:09;44.08;;;35.35;;
57107;SDS011;42987;52.916;6.542;2024-03-08T06:01:36;41.80;;;35.50;;
57107;SDS011;42987;52.916;6.542;2024-03-08T06:04:02;43.07;;;36.40;;
57107;SDS011;42987;52.916;6.542;2024-03-08T06:06:29;40.37;;;34.70;;
57107;SDS011;42987;52.916;6.542;2024-03-08T06:08:55;42.77;;;35.40;;
57107;SDS011;42987;52.916;6.542;2024-03-08T06:11:24;41.13;;;34.80;;
57107;SDS011;42987;52.916;6.542;2024-03-08T06:13:55;47.03;;;36.33;;
57107;SDS011;42987;52.916;6.542;2024-03-08T06:16:25;45.60;;;35.90;;
57107;SDS011;42987;52.916;6.542;2024-03-08T06:18:55;49.20;;;36.93;;
57107;SDS011;42987;52.916;6.542;2024-03-08T06:21:23;43.92;;;35.72;;
57107;SDS011;42987;52.916;6.542;2024-03-08T06:23:54;45.27;;;36.63;;
57107;SDS011;42987;52.916;6.542;2024-03-08T06:26:23;44.73;;;35.33;;
57107;SDS011;42987;52.916;6.542;2024-03-08T06:28:50;43.35;;;35.67;;
57107;SDS011;42987;52.916;6.542;2024-03-08T06:31:16;42.38;;;35.95;;
57107;SDS011;42987;52.916;6.542;2024-03-08T06:33:42;42.27;;;34.00;;
57107;SDS011;42987;52.916;6.542;2024-03-08T06:36:08;44.03;;;35.43;;
57107;SDS011;42987;52.916;6.542;2024-03-08T06:38:34;41.83;;;35.27;;
57107;SDS011;42987;52.916;6.542;2024-03-08T06:41:00;44.33;;;34.80;;
57107;SDS011;42987;52.916;6.542;2024-03-08T06:43:29;40.00;;;34.70;;
57107;SDS011;42987;52.916;6.542;2024-03-08T06:45:59;42.03;;;34.90;;
57107;SDS011;42987;52.916;6.542;2024-03-08T06:48:25;39.80;;;33.42;;
57107;SDS011;42987;52.916;6.542;2024-03-08T06:50:51;45.47;;;35.33;;
57107;SDS011;42987;52.916;6.542;2024-03-08T06:53:16;43.67;;;35.05;;
57107;SDS011;42987;52.916;6.542;2024-03-08T06:55:44;43.83;;;34.17;;
57107;SDS011;42987;52.916;6.542;2024-03-08T06:58:10;39.10;;;33.95;;
57107;SDS011;42987;52.916;6.542;2024-03-08T07:00:39;42.65;;;34.13;;
57107;SDS011;42987;52.916;6.542;2024-03-08T07:03:08;42.80;;;35.30;;
57107;SDS011;42987;52.916;6.542;2024-03-08T07:05:37;38.67;;;33.20;;
57107;SDS011;42987;52.916;6.542;2024-03-08T07:08:04;39.20;;;33.17;;
57107;SDS011;42987;52.916;6.542;2024-03-08T07:10:31;39.80;;;34.57;;
57107;SDS011;42987;52.916;6.542;2024-03-08T07:12:57;42.03;;;34.80;;
57107;SDS011;42987;52.916;6.542;2024-03-08T07:15:23;39.88;;;33.65;;
57107;SDS011;42987;52.916;6.542;2024-03-08T07:17:49;41.60;;;33.20;;
57107;SDS011;42987;52.916;6.542;2024-03-08T07:20:17;42.17;;;33.50;;
57107;SDS011;42987;52.916;6.542;2024-03-08T07:22:44;43.30;;;36.73;;
57107;SDS011;42987;52.916;6.542;2024-03-08T07:25:12;41.55;;;32.65;;
57107;SDS011;42987;52.916;6.542;2024-03-08T07:27:53;40.33;;;33.95;;
57107;SDS011;42987;52.916;6.542;2024-03-08T07:30:23;39.47;;;33.45;;
57107;SDS011;42987;52.916;6.542;2024-03-08T07:33:08;37.40;;;33.30;;
57107;SDS011;42987;52.916;6.542;2024-03-08T07:35:37;37.15;;;31.75;;
57107;SDS011;42987;52.916;6.542;2024-03-08T07:38:06;37.67;;;33.20;;
57107;SDS011;42987;52.916;6.542;2024-03-08T07:43:09;38.90;;;32.38;;
57107;SDS011;42987;52.916;6.542;2024-03-08T07:45:39;38.55;;;32.88;;
57107;SDS011;42987;52.916;6.542;2024-03-08T07:48:06;39.27;;;32.53;;
57107;SDS011;42987;52.916;6.542;2024-03-08T07:50:37;36.63;;;32.65;;
57107;SDS011;42987;52.916;6.542;2024-03-08T07:53:04;39.75;;;33.33;;
57107;SDS011;42987;52.916;6.542;2024-03-08T07:55:33;37.38;;;32.75;;
57107;SDS011;42987;52.916;6.542;2024-03-08T07:58:03;41.88;;;33.25;;
57107;SDS011;42987;52.916;6.542;2024-03-08T08:00:29;37.05;;;33.05;;
57107;SDS011;42987;52.916;6.542;2024-03-08T08:02:56;37.47;;;32.08;;
57107;SDS011;42987;52.916;6.542;2024-03-08T08:05:22;38.53;;;32.53;;
57107;SDS011;42987;52.916;6.542;2024-03-08T08:07:48;37.92;;;33.80;;
57107;SDS011;42987;52.916;6.542;2024-03-08T08:10:15;39.83;;;32.13;;
57107;SDS011;42987;52.916;6.542;2024-03-08T08:12:50;41.10;;;34.75;;
57107;SDS011;42987;52.916;6.542;2024-03-08T08:15:16;36.40;;;32.42;;
57107;SDS011;42987;52.916;6.542;2024-03-08T08:17:46;37.40;;;32.25;;
57107;SDS011;42987;52.916;6.542;2024-03-08T08:20:12;36.40;;;31.50;;
57107;SDS011;42987;52.916;6.542;2024-03-08T08:22:42;35.83;;;31.80;;
57107;SDS011;42987;52.916;6.542;2024-03-08T08:25:10;35.35;;;31.45;;
57107;SDS011;42987;52.916;6.542;2024-03-08T08:27:45;36.33;;;31.58;;
57107;SDS011;42987;52.916;6.542;2024-03-08T08:30:11;37.13;;;32.45;;
57107;SDS011;42987;52.916;6.542;2024-03-08T08:32:39;36.35;;;32.22;;
57107;SDS011;42987;52.916;6.542;2024-03-08T08:35:05;37.42;;;31.88;;
57107;SDS011;42987;52.916;6.542;2024-03-08T08:37:31;36.88;;;31.60;;
57107;SDS011;42987;52.916;6.542;2024-03-08T08:39:59;36.03;;;31.75;;
57107;SDS011;42987;52.916;6.542;2024-03-08T08:42:30;36.95;;;32.55;;
57107;SDS011;42987;52.916;6.542;2024-03-08T08:44:57;36.92;;;31.92;;
57107;SDS011;42987;52.916;6.542;2024-03-08T08:47:23;38.70;;;32.10;;
57107;SDS011;42987;52.916;6.542;2024-03-08T08:49:49;38.15;;;33.60;;
57107;SDS011;42987;52.916;6.542;2024-03-08T08:52:16;39.75;;;33.65;;
57107;SDS011;42987;52.916;6.542;2024-03-08T08:54:42;36.78;;;32.90;;
57107;SDS011;42987;52.916;6.542;2024-03-08T08:57:09;37.95;;;32.80;;
57107;SDS011;42987;52.916;6.542;2024-03-08T08:59:36;37.55;;;32.47;;
57107;SDS011;42987;52.916;6.542;2024-03-08T09:02:04;39.03;;;34.88;;
57107;SDS011;42987;52.916;6.542;2024-03-08T09:04:32;36.38;;;32.42;;
57107;SDS011;42987;52.916;6.542;2024-03-08T09:06:57;38.72;;;33.08;;
57107;SDS011;42987;52.916;6.542;2024-03-08T09:09:24;36.97;;;32.88;;
57107;SDS011;42987;52.916;6.542;2024-03-08T09:11:50;39.92;;;33.92;;
57107;SDS011;42987;52.916;6.542;2024-03-08T09:14:19;35.83;;;32.05;;
57107;SDS011;42987;52.916;6.542;2024-03-08T09:16:48;37.05;;;32.13;;
57107;SDS011;42987;52.916;6.542;2024-03-08T09:19:14;38.10;;;33.15;;
57107;SDS011;42987;52.916;6.542;2024-03-08T09:21:40;35.67;;;31.83;;
57107;SDS011;42987;52.916;6.542;2024-03-08T09:24:06;34.88;;;31.17;;
57107;SDS011;42987;52.916;6.542;2024-03-08T09:26:32;41.47;;;33.53;;
57107;SDS011;42987;52.916;6.542;2024-03-08T09:28:58;37.42;;;31.92;;
57107;SDS011;42987;52.916;6.542;2024-03-08T09:31:25;35.88;;;32.03;;
57107;SDS011;42987;52.916;6.542;2024-03-08T09:33:51;36.17;;;32.20;;
57107;SDS011;42987;52.916;6.542;2024-03-08T09:36:17;36.05;;;31.83;;
57107;SDS011;42987;52.916;6.542;2024-03-08T09:38:43;35.05;;;31.25;;
57107;SDS011;42987;52.916;6.542;2024-03-08T09:41:09;36.70;;;32.80;;
57107;SDS011;42987;52.916;6.542;2024-03-08T09:43:38;36.20;;;32.30;;
57107;SDS011;42987;52.916;6.542;2024-03-08T09:46:04;37.17;;;33.00;;
57107;SDS011;42987;52.916;6.542;2024-03-08T09:48:33;36.28;;;31.48;;
57107;SDS011;42987;52.916;6.542;2024-03-08T09:51:00;36.38;;;32.10;;
57107;SDS011;42987;52.916;6.542;2024-03-08T09:53:25;38.28;;;33.78;;
57107;SDS011;42987;52.916;6.542;2024-03-08T09:55:51;37.35;;;33.28;;
57107;SDS011;42987;52.916;6.542;2024-03-08T09:58:17;39.33;;;32.63;;
57107;SDS011;42987;52.916;6.542;2024-03-08T10:00:52;37.38;;;33.38;;
57107;SDS011;42987;52.916;6.542;2024-03-08T10:05:48;37.65;;;33.45;;
57107;SDS011;42987;52.916;6.542;2024-03-08T10:08:15;37.55;;;33.15;;
57107;SDS011;42987;52.916;6.542;2024-03-08T10:10:41;36.15;;;32.15;;
57107;SDS011;42987;52.916;6.542;2024-03-08T10:13:07;35.45;;;31.65;;
57107;SDS011;42987;52.916;6.542;2024-03-08T10:15:37;35.65;;;31.63;;
57107;SDS011;42987;52.916;6.542;2024-03-08T10:18:05;35.38;;;31.67;;
57107;SDS011;42987;52.916;6.542;2024-03-08T10:20:32;35.38;;;31.63;;
57107;SDS011;42987;52.916;6.542;2024-03-08T10:23:04;35.95;;;32.25;;
57107;SDS011;42987;52.916;6.542;2024-03-08T10:25:31;35.55;;;31.67;;
57107;SDS011;42987;52.916;6.542;2024-03-08T10:27:58;35.15;;;31.50;;
57107;SDS011;42987;52.916;6.542;2024-03-08T10:30:24;35.70;;;31.88;;
57107;SDS011;42987;52.916;6.542;2024-03-08T10:32:50;37.35;;;32.75;;
57107;SDS011;42987;52.916;6.542;2024-03-08T10:35:17;35.67;;;31.80;;
57107;SDS011;42987;52.916;6.542;2024-03-08T10:37:49;35.65;;;31.75;;
57107;SDS011;42987;52.916;6.542;2024-03-08T10:42:53;34.85;;;30.23;;
57107;SDS011;42987;52.916;6.542;2024-03-08T10:50:45;36.67;;;31.65;;
57107;SDS011;42987;52.916;6.542;2024-03-08T10:53:14;34.65;;;30.95;;
57107;SDS011;42987;52.916;6.542;2024-03-08T10:55:40;33.75;;;30.02;;
57107;SDS011;42987;52.916;6.542;2024-03-08T10:58:08;34.90;;;31.20;;
57107;SDS011;42987;52.916;6.542;2024-03-08T11:00:34;35.10;;;30.98;;
57107;SDS011;42987;52.916;6.542;2024-03-08T11:03:02;34.92;;;31.15;;
57107;SDS011;42987;52.916;6.542;2024-03-08T11:05:36;35.58;;;31.90;;
57107;SDS011;42987;52.916;6.542;2024-03-08T11:10:56;34.85;;;31.13;;
57107;SDS011;42987;52.916;6.542;2024-03-08T11:13:35;33.65;;;30.15;;
57107;SDS011;42987;52.916;6.542;2024-03-08T11:16:06;34.05;;;29.38;;
57107;SDS011;42987;52.916;6.542;2024-03-08T11:18:35;34.35;;;30.20;;
57107;SDS011;42987;52.916;6.542;2024-03-08T11:21:03;32.97;;;29.58;;
57107;SDS011;42987;52.916;6.542;2024-03-08T11:23:32;34.22;;;30.55;;
57107;SDS011;42987;52.916;6.542;2024-03-08T11:26:00;34.17;;;29.90;;
57107;SDS011;42987;52.916;6.542;2024-03-08T11:28:29;34.03;;;30.33;;
57107;SDS011;42987;52.916;6.542;2024-03-08T11:33:29;35.78;;;31.88;;
57107;SDS011;42987;52.916;6.542;2024-03-08T11:36:07;34.42;;;30.83;;
57107;SDS011;42987;52.916;6.542;2024-03-08T11:38:41;34.72;;;30.95;;
57107;SDS011;42987;52.916;6.542;2024-03-08T11:41:17;35.42;;;31.65;;
57107;SDS011;42987;52.916;6.542;2024-03-08T11:43:47;33.53;;;29.85;;
57107;SDS011;42987;52.916;6.542;2024-03-08T11:46:15;34.35;;;30.73;;
57107;SDS011;42987;52.916;6.542;2024-03-08T11:48:42;33.50;;;29.90;;
57107;SDS011;42987;52.916;6.542;2024-03-08T11:51:12;33.05;;;29.63;;
57107;SDS011;42987;52.916;6.542;2024-03-08T11:53:44;34.28;;;29.95;;
57107;SDS011;42987;52.916;6.542;2024-03-08T11:56:10;32.88;;;29.10;;
57107;SDS011;42987;52.916;6.542;2024-03-08T11:58:37;31.25;;;28.05;;
57107;SDS011;42987;52.916;6.542;2024-03-08T12:01:07;32.00;;;28.60;;
57107;SDS011;42987;52.916;6.542;2024-03-08T12:03:38;31.08;;;27.80;;
57107;SDS011;42987;52.916;6.542;2024-03-08T12:06:04;32.35;;;28.85;;
57107;SDS011;42987;52.916;6.542;2024-03-08T12:08:30;30.75;;;27.65;;
57107;SDS011;42987;52.916;6.542;2024-03-08T12:10:57;32.22;;;28.75;;
57107;SDS011;42987;52.916;6.542;2024-03-08T12:13:27;30.52;;;27.30;;
57107;SDS011;42987;52.916;6.542;2024-03-08T12:15:57;30.77;;;27.67;;
57107;SDS011;42987;52.916;6.542;2024-03-08T12:18:24;32.13;;;28.80;;
57107;SDS011;42987;52.916;6.542;2024-03-08T12:20:51;31.50;;;27.98;;
57107;SDS011;42987;52.916;6.542;2024-03-08T12:23:17;30.67;;;27.38;;
57107;SDS011;42987;52.916;6.542;2024-03-08T12:25:43;30.88;;;27.52;;
57107;SDS011;42987;52.916;6.542;2024-03-08T12:28:09;32.45;;;29.15;;
57107;SDS011;42987;52.916;6.542;2024-03-08T12:30:47;30.85;;;27.65;;
57107;SDS011;42987;52.916;6.542;2024-03-08T12:33:14;29.75;;;26.70;;
57107;SDS011;42987;52.916;6.542;2024-03-08T12:35:40;31.83;;;28.52;;
57107;SDS011;42987;52.916;6.542;2024-03-08T12:38:07;32.22;;;28.85;;
57107;SDS011;42987;52.916;6.542;2024-03-08T12:40:33;31.48;;;28.13;;
57107;SDS011;42987;52.916;6.542;2024-03-08T12:43:00;29.85;;;26.65;;
57107;SDS011;42987;52.916;6.542;2024-03-08T12:45:28;31.77;;;28.50;;
57107;SDS011;42987;52.916;6.542;2024-03-08T12:47:54;31.52;;;28.17;;
57107;SDS011;42987;52.916;6.542;2024-03-08T12:50:21;29.52;;;26.52;;
57107;SDS011;42987;52.916;6.542;2024-03-08T12:52:48;29.35;;;26.25;;
57107;SDS011;42987;52.916;6.542;2024-03-08T12:55:14;30.38;;;27.30;;
57107;SDS011;42987;52.916;6.542;2024-03-08T12:57:42;29.25;;;26.23;;
57107;SDS011;42987;52.916;6.542;2024-03-08T13:00:08;30.02;;;26.83;;
57107;SDS011;42987;52.916;6.542;2024-03-08T13:02:41;32.15;;;28.65;;
57107;SDS011;42987;52.916;6.542;2024-03-08T13:05:07;29.23;;;26.15;;
57107;SDS011;42987;52.916;6.542;2024-03-08T13:07:35;29.73;;;26.60;;
57107;SDS011;42987;52.916;6.542;2024-03-08T13:10:02;29.15;;;26.13;;
57107;SDS011;42987;52.916;6.542;2024-03-08T13:12:29;29.80;;;26.70;;
57107;SDS011;42987;52.916;6.542;2024-03-08T13:14:55;30.50;;;27.40;;
57107;SDS011;42987;52.916;6.542;2024-03-08T13:17:21;29.58;;;26.60;;
57107;SDS011;42987;52.916;6.542;2024-03-08T13:19:47;28.13;;;25.33;;
57107;SDS011;42987;52.916;6.542;2024-03-08T13:22:14;29.08;;;26.05;;
57107;SDS011;42987;52.916;6.542;2024-03-08T13:24:44;27.27;;;24.48;;
57107;SDS011;42987;52.916;6.542;2024-03-08T13:27:10;27.15;;;24.27;;
57107;SDS011;42987;52.916;6.542;2024-03-08T13:29:48;26.73;;;23.83;;
57107;SDS011;42987;52.916;6.542;2024-03-08T13:32:14;26.67;;;23.88;;
57107;SDS011;42987;52.916;6.542;2024-03-08T13:34:43;25.73;;;22.90;;
57107;SDS011;42987;52.916;6.542;2024-03-08T13:37:10;25.92;;;23.25;;
57107;SDS011;42987;52.916;6.542;2024-03-08T13:39:37;26.65;;;23.83;;
57107;SDS011;42987;52.916;6.542;2024-03-08T13:42:11;28.98;;;26.08;;
57107;SDS011;42987;52.916;6.542;2024-03-08T13:44:47;28.70;;;25.75;;
57107;SDS011;42987;52.916;6.542;2024-03-08T13:47:17;26.33;;;23.63;;
57107;SDS011;42987;52.916;6.542;2024-03-08T13:49:43;28.00;;;25.10;;
57107;SDS011;42987;52.916;6.542;2024-03-08T13:52:09;27.10;;;24.40;;
57107;SDS011;42987;52.916;6.542;2024-03-08T13:54:37;26.73;;;24.00;;
57107;SDS011;42987;52.916;6.542;2024-03-08T13:57:04;27.38;;;24.40;;
57107;SDS011;42987;52.916;6.542;2024-03-08T13:59:38;25.90;;;23.25;;
57107;SDS011;42987;52.916;6.542;2024-03-08T14:02:05;25.65;;;23.08;;
57107;SDS011;42987;52.916;6.542;2024-03-08T14:04:31;26.83;;;24.02;;
57107;SDS011;42987;52.916;6.542;2024-03-08T14:06:57;26.15;;;23.60;;
57107;SDS011;42987;52.916;6.542;2024-03-08T14:09:28;24.95;;;22.48;;
57107;SDS011;42987;52.916;6.542;2024-03-08T14:11:55;25.67;;;23.15;;
57107;SDS011;42987;52.916;6.542;2024-03-08T14:14:21;27.23;;;24.50;;
57107;SDS011;42987;52.916;6.542;2024-03-08T14:16:50;26.42;;;23.73;;
57107;SDS011;42987;52.916;6.542;2024-03-08T14:19:18;25.90;;;23.25;;
57107;SDS011;42987;52.916;6.542;2024-03-08T14:21:44;25.45;;;22.92;;
57107;SDS011;42987;52.916;6.542;2024-03-08T14:24:10;23.63;;;21.23;;
57107;SDS011;42987;52.916;6.542;2024-03-08T14:26:36;26.70;;;23.98;;
57107;SDS011;42987;52.916;6.542;2024-03-08T14:29:04;25.00;;;22.55;;
57107;SDS011;42987;52.916;6.542;2024-03-08T14:31:30;23.15;;;20.70;;
57107;SDS011;42987;52.916;6.542;2024-03-08T14:33:57;23.40;;;21.05;;
57107;SDS011;42987;52.916;6.542;2024-03-08T14:36:24;26.98;;;21.13;;
57107;SDS011;42987;52.916;6.542;2024-03-08T14:38:51;25.08;;;22.20;;
57107;SDS011;42987;52.916;6.542;2024-03-08T14:41:18;26.05;;;23.35;;
57107;SDS011;42987;52.916;6.542;2024-03-08T14:43:43;26.67;;;23.90;;
57107;SDS011;42987;52.916;6.542;2024-03-08T14:46:17;23.95;;;21.42;;